Time;durP1;ratioP1;P1;durP2;ratioP2;P2;SDS_P1;SDS_P2;PMS_P1;PMS_P2;Temp;Humidity;BMP_temperature;BMP_pressure;BME280_temperature;BME280_humidity;BME280_pressure;Samples;Min_cycle;Max_cycle;Signal;HPM_P1;HPM_P2
2022/01/19 00:01:38;;;;;;;12.13;5.60;;;;;;;;;;20927479;28;20049;-68
2022/01/19 00:11:40;;;;;;;9.88;5.75;;;;;;;;;;20926124;28;20084;-64
2022/01/19 00:21:42;;;;;;;10.93;6.43;;;;;;;;;;20924949;28;20045;-61
2022/01/19 00:31:44;;;;;;;12.50;6.95;;;;;;;;;;20925284;28;20078;-69
2022/01/19 00:41:45;;;;;;;11.35;6.95;;;;;;;;;;20923147;28;20505;-63
2022/01/19 00:51:48;;;;;;;9.65;5.32;;;;;;;;;;20921551;28;20060;-64
2022/01/19 01:01:50;;;;;;;11.07;5.70;;;;;;;;;;20921746;28;20045;-62
2022/01/19 01:12:12;;;;;;;11.82;5.32;;;;;;;;;;20920517;28;20053;-63
2022/01/19 01:22:14;;;;;;;13.00;6.88;;;;;;;;;;20919840;28;20049;-69
2022/01/19 01:32:17;;;;;;;10.15;5.57;;;;;;;;;;20919291;28;20057;-63
2022/01/19 01:42:19;;;;;;;9.45;5.45;;;;;;;;;;20917875;28;20049;-62
2022/01/19 02:02:43;;;;;;;10.32;6.10;;;;;;;;;;20916869;28;20045;-63
2022/01/19 02:23:14;;;;;;;11.05;5.45;;;;;;;;;;20915995;28;20481;-65
2022/01/19 02:43:36;;;;;;;11.27;6.00;;;;;;;;;;20915048;28;20041;-64
2022/01/19 02:53:39;;;;;;;8.50;5.22;;;;;;;;;;20912100;28;20063;-66
2022/01/19 03:14:27;;;;;;;7.72;5.40;;;;;;;;;;20921559;28;20045;-63
2022/01/19 03:24:37;;;;;;;7.78;4.95;;;;;;;;;;20939438;28;20048;-63
2022/01/19 03:34:42;;;;;;;10.65;5.10;;;;;;;;;;20939092;28;20052;-63
2022/01/19 03:44:44;;;;;;;9.20;4.82;;;;;;;;;;20939284;28;20045;-62
2022/01/19 03:54:46;;;;;;;8.32;5.07;;;;;;;;;;20938212;28;20060;-62
2022/01/19 04:05:01;;;;;;;7.40;4.90;;;;;;;;;;20938997;28;20493;-67
2022/01/19 04:15:03;;;;;;;7.20;4.80;;;;;;;;;;20937728;28;20045;-68
2022/01/19 04:25:07;;;;;;;10.83;5.10;;;;;;;;;;20932589;28;20053;-63
2022/01/19 04:35:13;;;;;;;6.50;4.60;;;;;;;;;;20924942;28;20053;-69
2022/01/19 05:06:24;;;;;;;7.40;4.20;;;;;;;;;;20921461;28;20455;-64
2022/01/19 05:16:01;;;;;;;7.35;4.15;;;;;;;;;;20916797;28;20078;-64
2022/01/19 05:26:03;;;;;;;7.00;4.33;;;;;;;;;;20920281;28;20520;-65
2022/01/19 05:36:05;;;;;;;6.53;4.40;;;;;;;;;;20918106;28;20135;-64
2022/01/19 05:46:08;;;;;;;11.37;4.90;;;;;;;;;;20918814;28;20053;-64
2022/01/19 05:56:10;;;;;;;6.33;4.10;;;;;;;;;;20917927;28;20053;-63
2022/01/19 06:06:12;;;;;;;8.77;4.37;;;;;;;;;;20916522;28;20136;-65
2022/01/19 06:16:14;;;;;;;8.17;4.63;;;;;;;;;;20915778;28;20455;-65
2022/01/19 06:26:16;;;;;;;9.30;5.23;;;;;;;;;;20915400;28;20053;-64
2022/01/19 06:36:18;;;;;;;9.80;4.47;;;;;;;;;;20913901;28;20103;-65
2022/01/19 06:46:20;;;;;;;7.90;4.80;;;;;;;;;;20912398;28;20509;-67
2022/01/19 06:56:22;;;;;;;15.70;8.73;;;;;;;;;;20912848;28;20052;-68
2022/01/19 07:06:26;;;;;;;11.83;5.53;;;;;;;;;;20912736;28;20055;-65
2022/01/19 07:16:28;;;;;;;7.17;4.17;;;;;;;;;;20913146;28;20049;-67
2022/01/19 07:26:31;;;;;;;20.37;11.57;;;;;;;;;;20912453;28;20102;-68
2022/01/19 07:36:32;;;;;;;10.67;4.50;;;;;;;;;;20910857;28;20048;-69
2022/01/19 07:46:37;;;;;;;14.83;5.70;;;;;;;;;;20910474;28;20041;-65
2022/01/19 07:56:39;;;;;;;16.67;9.37;;;;;;;;;;20909883;28;20064;-66
2022/01/19 08:06:43;;;;;;;11.57;6.40;;;;;;;;;;20924471;28;20048;-66
2022/01/19 08:16:47;;;;;;;18.37;9.10;;;;;;;;;;20925415;28;20060;-66
2022/01/19 08:26:50;;;;;;;18.23;6.30;;;;;;;;;;20924080;28;20141;-65
2022/01/19 08:36:51;;;;;;;15.77;6.72;;;;;;;;;;20922380;28;20049;-65
2022/01/19 08:46:54;;;;;;;17.97;7.27;;;;;;;;;;20922975;28;20088;-65
2022/01/19 08:56:56;;;;;;;16.02;7.38;;;;;;;;;;20921745;28;20089;-66
2022/01/19 09:06:59;;;;;;;17.02;6.50;;;;;;;;;;20920117;28;20151;-66
2022/01/19 09:17:07;;;;;;;11.70;6.43;;;;;;;;;;20918729;28;20041;-64
2022/01/19 09:27:10;;;;;;;12.82;6.63;;;;;;;;;;20919298;28;20057;-63
2022/01/19 09:37:11;;;;;;;12.25;6.57;;;;;;;;;;20918554;28;20459;-65
2022/01/19 09:47:15;;;;;;;16.60;7.32;;;;;;;;;;20923050;28;20056;-64
2022/01/19 09:57:17;;;;;;;15.02;7.13;;;;;;;;;;20917192;28;20158;-64
2022/01/19 10:07:21;;;;;;;18.52;7.00;;;;;;;;;;20916797;28;20418;-64
2022/01/19 10:17:30;;;;;;;11.73;6.40;;;;;;;;;;20914708;28;20049;-63
2022/01/19 10:27:42;;;;;;;12.50;5.07;;;;;;;;;;20912546;28;20501;-71
2022/01/19 10:37:45;;;;;;;13.00;5.28;;;;;;;;;;20913876;28;20060;-71
2022/01/19 10:47:50;;;;;;;15.02;5.50;;;;;;;;;;20913275;28;20053;-58
2022/01/19 10:57:52;;;;;;;10.25;4.97;;;;;;;;;;20912036;28;20057;-67
2022/01/19 11:07:54;;;;;;;12.52;5.45;;;;;;;;;;20912376;28;20508;-68
2022/01/19 11:17:56;;;;;;;9.50;5.28;;;;;;;;;;20901055;28;20076;-64
2022/01/19 11:27:58;;;;;;;11.35;6.20;;;;;;;;;;20890387;28;20476;-61
2022/01/19 11:38:01;;;;;;;17.40;6.35;;;;;;;;;;20916497;28;20095;-60
2022/01/19 11:48:13;;;;;;;15.07;8.35;;;;;;;;;;20925967;28;20053;-57
2022/01/19 11:58:20;;;;;;;19.73;8.38;;;;;;;;;;20868545;28;20123;-59
2022/01/19 12:08:27;;;;;;;17.20;7.03;;;;;;;;;;20842914;28;20045;-56
2022/01/19 12:18:47;;;;;;;18.83;6.53;;;;;;;;;;20880600;28;20114;-58
2022/01/19 12:28:51;;;;;;;15.45;5.07;;;;;;;;;;20853907;28;20049;-71
2022/01/19 12:39:05;;;;;;;8.60;5.50;;;;;;;;;;20840296;28;20116;-71
2022/01/19 12:49:26;;;;;;;9.70;5.22;;;;;;;;;;20843077;28;20494;-73
2022/01/19 12:59:30;;;;;;;11.02;4.13;;;;;;;;;;20838988;28;20410;-62
2022/01/19 13:09:37;;;;;;;9.63;5.65;;;;;;;;;;20845900;28;20493;-60
2022/01/19 13:19:40;;;;;;;8.60;4.95;;;;;;;;;;20919961;28;20048;-64
2022/01/19 13:29:47;;;;;;;12.45;5.10;;;;;;;;;;20919670;28;20445;-71
2022/01/19 13:40:00;;;;;;;9.45;4.72;;;;;;;;;;20918286;28;20132;-68
2022/01/19 13:50:03;;;;;;;11.32;5.30;;;;;;;;;;20917789;28;20065;-68
2022/01/19 14:00:12;;;;;;;8.70;4.75;;;;;;;;;;20916111;28;20471;-69
2022/01/19 14:10:14;;;;;;;7.65;5.18;;;;;;;;;;20916161;28;20504;-68
2022/01/19 14:20:21;;;;;;;7.13;4.18;;;;;;;;;;20914951;28;20045;-68
2022/01/19 14:30:28;;;;;;;8.52;5.32;;;;;;;;;;20913782;28;20049;-68
2022/01/19 14:40:31;;;;;;;9.88;6.57;;;;;;;;;;20915772;28;20477;-71
2022/01/19 14:50:34;;;;;;;6.68;4.13;;;;;;;;;;20915562;28;20044;-71
2022/01/19 15:00:38;;;;;;;11.60;5.40;;;;;;;;;;20919240;28;20415;-67
2022/01/19 15:10:40;;;;;;;14.15;6.15;;;;;;;;;;20913470;28;20061;-67
2022/01/19 15:20:42;;;;;;;10.27;5.35;;;;;;;;;;20911118;28;20049;-67
2022/01/19 15:30:44;;;;;;;9.55;4.53;;;;;;;;;;20908328;28;20048;-61
2022/01/19 15:40:47;;;;;;;10.40;4.57;;;;;;;;;;20908155;28;20057;-64
2022/01/19 15:50:50;;;;;;;8.55;5.30;;;;;;;;;;20910007;28;20052;-59
2022/01/19 16:00:53;;;;;;;11.73;7.03;;;;;;;;;;20906379;28;20053;-63
2022/01/19 16:10:55;;;;;;;10.35;5.20;;;;;;;;;;20908149;28;20254;-68
2022/01/19 16:20:59;;;;;;;13.05;6.45;;;;;;;;;;20911668;28;20124;-60
2022/01/19 16:31:01;;;;;;;12.23;6.72;;;;;;;;;;20922561;28;20126;-61
2022/01/19 16:41:03;;;;;;;15.05;6.43;;;;;;;;;;20921325;28;20049;-61
2022/01/19 16:51:05;;;;;;;14.93;6.32;;;;;;;;;;20921121;28;20127;-61
2022/01/19 17:01:09;;;;;;;15.23;7.57;;;;;;;;;;20920375;28;20056;-63
2022/01/19 17:11:11;;;;;;;18.70;7.68;;;;;;;;;;20888627;28;20140;-71
2022/01/19 17:21:14;;;;;;;15.70;8.98;;;;;;;;;;20882289;28;20453;-68
2022/01/19 17:31:16;;;;;;;22.60;9.63;;;;;;;;;;20893598;28;20475;-68
2022/01/19 17:41:18;;;;;;;11.68;6.95;;;;;;;;;;20870748;28;20094;-66
2022/01/19 18:01:32;;;;;;;14.90;7.60;;;;;;;;;;20881051;28;20136;-61
2022/01/19 18:11:34;;;;;;;47.35;26.73;;;;;;;;;;20914284;28;20485;-59
2022/01/19 18:21:35;;;;;;;40.67;16.50;;;;;;;;;;20853893;28;20053;-61
2022/01/19 18:31:37;;;;;;;38.78;19.50;;;;;;;;;;20830808;28;20056;-61
2022/01/19 18:41:39;;;;;;;15.50;9.75;;;;;;;;;;20841039;28;20045;-61
2022/01/19 18:51:41;;;;;;;27.75;12.90;;;;;;;;;;20827732;28;20061;-57
2022/01/19 19:01:46;;;;;;;19.25;9.95;;;;;;;;;;20843623;28;20064;-63
2022/01/19 19:12:18;;;;;;;20.43;8.90;;;;;;;;;;20827572;28;20045;-59
2022/01/19 19:22:13;;;;;;;16.23;7.80;;;;;;;;;;20827437;28;20552;-56
2022/01/19 19:32:15;;;;;;;14.10;8.00;;;;;;;;;;20828758;28;20050;-56
2022/01/19 19:42:17;;;;;;;10.75;6.35;;;;;;;;;;20826560;28;20136;-61
2022/01/19 19:52:19;;;;;;;16.98;8.93;;;;;;;;;;20826613;28;20532;-67
2022/01/19 20:02:21;;;;;;;13.50;7.43;;;;;;;;;;20841008;28;20045;-64
2022/01/19 20:12:22;;;;;;;14.80;7.45;;;;;;;;;;20840344;28;20049;-64
2022/01/19 20:22:25;;;;;;;20.25;10.13;;;;;;;;;;20841898;28;20049;-62
2022/01/19 20:32:26;;;;;;;26.60;14.55;;;;;;;;;;20841145;28;20057;-62
2022/01/19 20:42:28;;;;;;;15.77;8.63;;;;;;;;;;20839591;28;20405;-62
2022/01/19 20:52:30;;;;;;;14.05;8.07;;;;;;;;;;20838334;28;20148;-61
2022/01/19 21:02:32;;;;;;;19.20;10.15;;;;;;;;;;20837485;28;20080;-62
2022/01/19 21:12:36;;;;;;;11.55;7.07;;;;;;;;;;20836126;28;20053;-62
2022/01/19 21:22:38;;;;;;;11.32;7.22;;;;;;;;;;20837058;28;20077;-65
2022/01/19 21:32:40;;;;;;;14.57;6.65;;;;;;;;;;20837531;28;20490;-62
2022/01/19 21:42:43;;;;;;;7.30;5.30;;;;;;;;;;20835804;28;20054;-65
2022/01/19 21:52:45;;;;;;;9.32;5.32;;;;;;;;;;20835183;28;20088;-62
2022/01/19 22:02:47;;;;;;;17.60;7.38;;;;;;;;;;20834591;28;20045;-61
2022/01/19 22:12:49;;;;;;;9.27;5.00;;;;;;;;;;20835708;28;20053;-61
2022/01/19 22:22:51;;;;;;;10.95;5.40;;;;;;;;;;20833519;28;20469;-63
2022/01/19 22:32:53;;;;;;;9.95;4.80;;;;;;;;;;20832172;28;20053;-61
2022/01/19 22:42:55;;;;;;;10.02;5.32;;;;;;;;;;20832610;28;20088;-61
2022/01/19 22:52:57;;;;;;;10.32;5.72;;;;;;;;;;20831460;28;20049;-60
2022/01/19 23:02:59;;;;;;;10.15;6.20;;;;;;;;;;20830607;28;20104;-63
2022/01/19 23:13:01;;;;;;;11.95;6.40;;;;;;;;;;20830380;28;20053;-70
2022/01/19 23:23:02;;;;;;;10.27;6.55;;;;;;;;;;20829933;28;20132;-69
2022/01/19 23:33:10;;;;;;;10.20;6.10;;;;;;;;;;20837871;28;20414;-68
2022/01/19 23:53:32;;;;;;;14.73;7.53;;;;;;;;;;20845283;28;20494;-62
